Time;durP1;ratioP1;P1;durP2;ratioP2;P2;SDS_P1;SDS_P2;PMS_P1;PMS_P2;Temp;Humidity;BMP_temperature;BMP_pressure;BME280_temperature;BME280_humidity;BME280_pressure;Samples;Min_cycle;Max_cycle;Signal;HPM_P1;HPM_P2
2022/03/03 00:01:52;;;;;;;25.53;11.93;;;;;;;1.47;58.85;100552.49;1375482;90;22491;-91
2022/03/03 00:04:19;;;;;;;21.60;11.30;;;;;;;1.49;58.92;100541.48;1362136;90;21538;-89
2022/03/03 00:06:46;;;;;;;19.23;10.77;;;;;;;1.49;58.80;100544.93;1375466;89;22021;-88
2022/03/03 00:09:15;;;;;;;21.23;9.13;;;;;;;1.50;58.87;100541.89;1362571;90;21622;-89
2022/03/03 00:11:43;;;;;;;24.27;10.83;;;;;;;1.47;58.67;100536.38;1375439;89;21660;-88
2022/03/03 00:14:10;;;;;;;25.27;13.65;;;;;;;1.52;58.80;100541.31;1375439;89;22057;-91
2022/03/03 00:16:37;;;;;;;25.00;11.53;;;;;;;1.50;58.75;100543.19;1378789;89;21331;-92
2022/03/03 00:19:07;;;;;;;28.43;12.10;;;;;;;1.46;58.97;100547.72;1370003;89;21590;-91
2022/03/03 00:21:34;;;;;;;33.57;14.63;;;;;;;1.49;58.94;100545.40;1382452;88;22830;-91
2022/03/03 00:24:01;;;;;;;18.57;9.93;;;;;;;1.52;58.90;100543.92;1370726;89;21842;-90
2022/03/03 00:26:28;;;;;;;19.20;11.93;;;;;;;1.48;58.95;100551.55;1382141;89;21281;-88
2022/03/03 00:28:55;;;;;;;22.73;11.40;;;;;;;1.49;59.03;100551.92;1382673;88;21551;-88
2022/03/03 00:31:23;;;;;;;20.17;11.13;;;;;;;1.52;58.88;100554.36;1382119;88;21533;-88
2022/03/03 00:33:50;;;;;;;20.33;11.40;;;;;;;1.54;58.86;100552.52;1382341;88;21906;-88
2022/03/03 00:36:18;;;;;;;25.57;11.80;;;;;;;1.54;58.82;100548.13;1381940;88;22672;-89
2022/03/03 00:38:45;;;;;;;24.80;12.57;;;;;;;1.51;58.89;100549.61;1382604;88;22301;-89
2022/03/03 00:41:12;;;;;;;22.37;12.67;;;;;;;1.57;58.87;100551.03;1382427;89;22037;-88
2022/03/03 00:43:39;;;;;;;19.93;10.67;;;;;;;1.61;58.69;100551.22;1382173;89;21346;-89
2022/03/03 00:46:06;;;;;;;21.73;10.60;;;;;;;1.56;58.99;100548.05;1370321;89;21456;-89
2022/03/03 00:48:33;;;;;;;22.27;11.33;;;;;;;1.53;59.01;100549.06;1382021;88;21499;-89
2022/03/03 00:51:04;;;;;;;21.13;11.70;;;;;;;1.59;58.98;100551.80;1382185;88;22459;-89
2022/03/03 00:53:29;;;;;;;26.20;11.47;;;;;;;1.61;58.92;100543.39;1382178;89;21561;-90
2022/03/03 00:55:56;;;;;;;17.33;10.50;;;;;;;1.63;58.99;100544.16;1382429;88;21540;-89
2022/03/03 00:58:23;;;;;;;19.50;10.23;;;;;;;1.61;58.99;100536.87;1381398;89;21547;-90
2022/03/03 01:00:50;;;;;;;22.63;10.67;;;;;;;1.55;59.04;100539.39;1381637;89;21497;-89
2022/03/03 01:03:19;;;;;;;20.53;10.10;;;;;;;1.55;59.22;100533.31;1370139;89;22478;-89
2022/03/03 01:05:46;;;;;;;26.13;10.90;;;;;;;1.54;59.30;100536.86;1382469;89;21669;-89
2022/03/03 01:08:13;;;;;;;15.58;9.23;;;;;;;1.52;59.42;100536.09;1382467;89;21662;-89
2022/03/03 01:10:42;;;;;;;20.00;11.17;;;;;;;1.53;59.54;100527.36;1382433;89;21481;-89
2022/03/03 01:13:09;;;;;;;19.23;10.83;;;;;;;1.51;59.42;100533.13;1382301;89;22504;-88
2022/03/03 01:15:36;;;;;;;22.20;9.73;;;;;;;1.47;59.34;100527.72;1382123;88;21649;-89
2022/03/03 01:18:03;;;;;;;18.97;10.37;;;;;;;1.41;59.46;100521.52;1377219;89;22144;-89
2022/03/03 01:20:31;;;;;;;20.48;10.58;;;;;;;1.42;59.43;100518.00;1373823;90;22671;-88
2022/03/03 01:22:58;;;;;;;18.23;10.43;;;;;;;1.44;59.52;100520.03;1374445;89;22373;-89
2022/03/03 01:25:25;;;;;;;24.97;11.93;;;;;;;1.40;59.51;100506.80;1373454;89;21461;-89
2022/03/03 01:27:52;;;;;;;20.05;11.55;;;;;;;1.45;59.38;100507.39;1373795;89;22197;-88
2022/03/03 01:30:21;;;;;;;21.37;10.30;;;;;;;1.40;59.63;100505.50;1373845;90;21344;-87
2022/03/03 01:32:48;;;;;;;25.97;11.73;;;;;;;1.39;59.68;100500.75;1373798;89;21269;-86
2022/03/03 01:35:15;;;;;;;29.35;11.88;;;;;;;1.42;59.63;100499.74;1373272;90;21299;-86
2022/03/03 01:37:44;;;;;;;20.83;10.30;;;;;;;1.38;59.98;100497.75;1373338;89;21328;-86
2022/03/03 01:40:12;;;;;;;22.90;10.30;;;;;;;1.37;60.08;100492.17;1373466;90;21990;-86
2022/03/03 01:42:39;;;;;;;19.87;9.83;;;;;;;1.37;60.04;100491.33;1373813;89;21284;-86
2022/03/03 01:45:09;;;;;;;20.07;10.23;;;;;;;1.39;59.91;100493.40;1374256;89;22707;-86
2022/03/03 01:47:36;;;;;;;22.77;12.30;;;;;;;1.35;60.17;100492.71;1373305;90;22144;-88
2022/03/03 01:50:05;;;;;;;23.20;11.40;;;;;;;1.39;60.06;100492.93;1373862;90;21938;-88
2022/03/03 01:52:32;;;;;;;21.80;11.00;;;;;;;1.40;60.12;100495.07;1373851;90;21481;-88
2022/03/03 01:54:59;;;;;;;24.40;11.30;;;;;;;1.33;60.25;100490.20;1374080;90;21569;-88
2022/03/03 01:57:27;;;;;;;23.92;11.12;;;;;;;1.32;60.47;100492.45;1360505;90;21402;-88
2022/03/03 01:59:54;;;;;;;19.70;10.63;;;;;;;1.29;60.58;100486.55;1373453;89;21298;-88
2022/03/03 02:02:23;;;;;;;18.75;9.88;;;;;;;1.28;60.60;100484.41;1373904;90;21741;-88
2022/03/03 02:04:50;;;;;;;18.30;12.10;;;;;;;1.22;60.81;100476.93;1374153;90;21269;-88
2022/03/03 02:07:17;;;;;;;21.30;12.28;;;;;;;1.21;60.50;100479.17;1361130;90;22786;-87
2022/03/03 02:09:45;;;;;;;21.52;10.98;;;;;;;1.17;60.72;100481.56;1373797;89;22281;-87
2022/03/03 02:12:13;;;;;;;22.70;11.73;;;;;;;1.16;60.95;100479.89;1373456;89;21380;-87
2022/03/03 02:14:44;;;;;;;21.17;10.55;;;;;;;1.16;60.68;100475.98;1373696;89;21904;-86
2022/03/03 02:17:12;;;;;;;;;;;;;;;1.13;60.89;100469.64;1376405;89;21608;-87
2022/03/03 02:19:40;;;;;;;24.37;11.40;;;;;;;1.10;61.11;100469.34;1360053;91;20247;-87
2022/03/03 02:22:08;;;;;;;24.27;11.10;;;;;;;1.07;61.09;100469.52;1373534;89;22393;-87
2022/03/03 02:24:37;;;;;;;21.55;10.93;;;;;;;1.06;61.01;100465.67;1373758;89;21239;-87
2022/03/03 02:27:06;;;;;;;25.90;11.17;;;;;;;1.04;61.10;100462.34;1360371;90;22385;-87
2022/03/03 02:29:34;;;;;;;21.02;11.48;;;;;;;1.05;61.04;100461.41;1373396;90;22065;-87
2022/03/03 02:32:05;;;;;;;20.12;10.20;;;;;;;1.01;61.22;100459.91;1373418;90;21247;-87
2022/03/03 02:34:34;;;;;;;26.23;11.63;;;;;;;0.99;61.21;100452.16;1373436;89;22835;-89
2022/03/03 02:37:02;;;;;;;26.15;13.98;;;;;;;0.93;61.37;100457.72;1373557;90;21262;-88
2022/03/03 02:39:29;;;;;;;21.95;10.95;;;;;;;0.97;61.30;100446.65;1373893;89;22208;-88
2022/03/03 02:41:56;;;;;;;20.90;10.90;;;;;;;0.94;61.23;100446.36;1373608;90;21281;-88
2022/03/03 02:44:23;;;;;;;22.00;11.68;;;;;;;0.94;61.31;100446.36;1374060;90;21305;-87
2022/03/03 02:46:51;;;;;;;29.27;11.15;;;;;;;0.94;61.34;100442.45;1373781;89;21350;-89
2022/03/03 02:49:18;;;;;;;20.95;11.65;;;;;;;0.97;61.39;100444.05;1374264;89;21284;-88
2022/03/03 02:51:47;;;;;;;21.15;12.78;;;;;;;0.97;61.35;100442.73;1374138;90;21298;-87
2022/03/03 02:54:14;;;;;;;23.80;12.80;;;;;;;0.99;61.46;100435.69;1360520;90;21298;-87
2022/03/03 02:59:28;;;;;;;27.45;13.65;;;;;;;1.08;61.16;100436.00;1373115;89;21180;-87
2022/03/03 03:01:55;;;;;;;23.42;12.13;;;;;;;1.12;61.06;100436.66;1373548;89;21261;-87
2022/03/03 03:04:22;;;;;;;23.20;11.43;;;;;;;1.18;60.74;100431.12;1373801;90;21313;-87
2022/03/03 03:06:49;;;;;;;21.10;10.72;;;;;;;1.22;60.58;100433.91;1373726;89;21408;-88
2022/03/03 03:09:16;;;;;;;22.80;12.37;;;;;;;1.25;60.43;100441.56;1373638;89;21312;-88
2022/03/03 03:11:43;;;;;;;20.15;11.08;;;;;;;1.30;60.35;100437.39;1373364;89;22707;-87
2022/03/03 03:14:10;;;;;;;23.35;11.10;;;;;;;1.33;60.41;100433.30;1373353;89;21283;-88
2022/03/03 03:16:37;;;;;;;25.00;11.17;;;;;;;1.32;60.24;100428.56;1373629;89;21351;-87
2022/03/03 03:19:04;;;;;;;20.47;11.20;;;;;;;1.33;60.05;100431.53;1376132;89;23160;-87
2022/03/03 03:21:32;;;;;;;21.60;11.70;;;;;;;1.34;59.92;100430.59;1376557;88;22022;-88
2022/03/03 03:23:59;;;;;;;19.50;12.03;;;;;;;1.34;59.69;100427.98;1376882;88;21920;-87
2022/03/03 03:26:26;;;;;;;18.65;9.78;;;;;;;1.42;59.65;100427.55;1376430;88;21469;-87
2022/03/03 03:28:53;;;;;;;21.53;12.10;;;;;;;1.37;59.16;100425.66;1376685;89;21399;-87
2022/03/03 03:31:20;;;;;;;25.37;13.10;;;;;;;1.44;59.15;100419.63;1376710;89;21460;-88
2022/03/03 03:33:47;;;;;;;18.80;9.07;;;;;;;1.48;59.03;100421.14;1376292;89;21520;-87
2022/03/03 03:36:15;;;;;;;19.50;10.87;;;;;;;1.45;58.68;100423.93;1376231;89;21527;-88
2022/03/03 03:38:42;;;;;;;21.00;11.23;;;;;;;1.51;58.76;100419.66;1376506;89;22793;-87
2022/03/03 03:41:09;;;;;;;22.40;11.10;;;;;;;1.51;58.71;100420.48;1356952;91;21634;-87
2022/03/03 03:43:36;;;;;;;20.13;11.37;;;;;;;1.50;58.64;100419.29;1376417;89;22081;-87
2022/03/03 03:46:04;;;;;;;29.90;13.17;;;;;;;1.53;58.66;100421.72;1377309;89;21513;-89
2022/03/03 03:48:31;;;;;;;24.67;12.47;;;;;;;1.57;58.70;100424.50;1376545;89;21580;-87
2022/03/03 03:50:58;;;;;;;23.00;11.70;;;;;;;1.59;58.51;100422.66;1376507;88;21537;-86
2022/03/03 03:53:25;;;;;;;23.33;12.43;;;;;;;1.55;58.56;100416.79;1376588;88;21597;-87
2022/03/03 03:55:52;;;;;;;20.20;9.90;;;;;;;1.57;58.39;100427.11;1376392;89;21549;-87
2022/03/03 03:58:19;;;;;;;29.50;11.03;;;;;;;1.53;58.21;100417.80;1376730;89;21645;-87
2022/03/03 04:00:46;;;;;;;22.27;12.80;;;;;;;1.48;58.44;100421.14;1376390;89;21521;-87
2022/03/03 04:03:14;;;;;;;24.37;12.70;;;;;;;1.46;58.55;100417.30;1376540;89;21602;-86
2022/03/03 04:05:40;;;;;;;21.30;10.07;;;;;;;1.45;58.53;100430.45;1376963;89;22549;-87
2022/03/03 04:08:07;;;;;;;30.50;13.67;;;;;;;1.33;58.71;100426.31;1376977;89;23139;-87
2022/03/03 04:10:34;;;;;;;19.97;10.70;;;;;;;1.24;58.88;100420.33;1376038;89;21459;-87
2022/03/03 04:13:03;;;;;;;25.20;11.80;;;;;;;1.23;59.02;100426.45;1376692;89;21546;-86
2022/03/03 04:15:31;;;;;;;25.03;11.63;;;;;;;1.16;59.19;100422.53;1377291;89;21565;-86
2022/03/03 04:17:58;;;;;;;22.57;12.60;;;;;;;1.16;59.13;100422.53;1377544;89;21490;-88
2022/03/03 04:20:27;;;;;;;26.15;13.03;;;;;;;1.08;59.44;100415.61;1373742;89;22416;-87
2022/03/03 04:22:54;;;;;;;28.20;11.03;;;;;;;1.08;59.51;100419.52;1373954;89;21318;-88
2022/03/03 04:25:21;;;;;;;23.45;11.97;;;;;;;1.04;59.44;100422.77;1373641;90;22347;-87
2022/03/03 04:27:48;;;;;;;22.37;10.58;;;;;;;0.98;59.80;100421.82;1373725;88;22250;-88
2022/03/03 04:30:16;;;;;;;20.90;9.98;;;;;;;0.85;60.06;100416.91;1373947;89;22124;-88
2022/03/03 04:32:43;;;;;;;20.52;11.68;;;;;;;0.86;60.02;100414.23;1373854;90;21340;-88
2022/03/03 04:35:11;;;;;;;31.10;15.32;;;;;;;0.81;60.06;100409.73;1373815;88;21325;-87
2022/03/03 04:37:39;;;;;;;20.90;11.12;;;;;;;0.84;59.81;100406.13;1373551;89;21281;-87
2022/03/03 04:40:07;;;;;;;26.00;13.05;;;;;;;0.81;59.95;100403.69;1374202;89;21341;-87
2022/03/03 04:42:35;;;;;;;23.50;11.48;;;;;;;0.80;60.09;100401.52;1360502;91;21304;-87
2022/03/03 04:45:04;;;;;;;19.75;11.43;;;;;;;0.81;60.18;100404.99;1373786;90;21370;-87
2022/03/03 04:47:31;;;;;;;26.10;12.65;;;;;;;0.79;60.26;100398.55;1373747;90;21407;-88
2022/03/03 04:49:58;;;;;;;23.40;12.90;;;;;;;0.78;59.85;100404.70;1373643;90;21437;-87
2022/03/03 04:52:25;;;;;;;25.25;13.98;;;;;;;0.81;59.72;100401.92;1373475;90;21281;-88
2022/03/03 04:54:52;;;;;;;25.25;12.68;;;;;;;0.84;59.88;100399.14;1373512;90;22198;-89
2022/03/03 04:57:20;;;;;;;25.05;12.00;;;;;;;0.79;59.98;100399.85;1373810;90;21333;-88
2022/03/03 04:59:47;;;;;;;25.20;11.60;;;;;;;0.81;60.02;100396.70;1373836;89;21304;-88
2022/03/03 05:02:16;;;;;;;24.87;12.35;;;;;;;0.81;60.11;100396.70;1373738;90;22278;-89
2022/03/03 05:04:42;;;;;;;31.45;13.18;;;;;;;0.77;60.38;100403.00;1373843;88;21340;-89
2022/03/03 05:07:10;;;;;;;25.60;11.50;;;;;;;0.80;60.02;100402.82;1360385;91;21318;-89
2022/03/03 05:09:37;;;;;;;28.45;12.90;;;;;;;0.84;60.07;100403.05;1374349;90;21288;-88
2022/03/03 05:12:04;;;;;;;24.85;12.43;;;;;;;0.90;60.13;100407.08;1373806;90;21296;-86
2022/03/03 05:14:32;;;;;;;21.93;11.25;;;;;;;0.90;60.37;100405.30;1373613;90;21289;-86
2022/03/03 05:16:59;;;;;;;21.33;11.63;;;;;;;0.93;60.34;100407.37;1373712;90;21397;-87
2022/03/03 05:19:26;;;;;;;22.98;11.70;;;;;;;0.97;60.22;100406.25;1376358;89;22294;-87
2022/03/03 05:21:55;;;;;;;26.95;13.28;;;;;;;0.98;60.38;100404.88;1357673;91;21414;-86
2022/03/03 05:24:23;;;;;;;23.75;12.63;;;;;;;1.00;60.29;100409.52;1377614;89;21274;-85
2022/03/03 05:26:50;;;;;;;23.85;13.40;;;;;;;1.04;60.37;100406.30;1377092;88;21289;-88
2022/03/03 05:29:17;;;;;;;25.82;13.22;;;;;;;1.12;60.19;100410.58;1377079;89;21378;-88
2022/03/03 05:31:44;;;;;;;22.95;12.13;;;;;;;1.21;60.14;100407.91;1376872;89;21289;-89
2022/03/03 05:34:12;;;;;;;23.27;12.40;;;;;;;1.26;60.02;100401.51;1377120;89;21421;-89
2022/03/03 05:36:41;;;;;;;22.45;12.18;;;;;;;1.33;59.98;100395.49;1377040;89;21542;-89
2022/03/03 05:39:09;;;;;;;28.43;14.90;;;;;;;1.37;60.15;100402.66;1377285;89;21332;-90
2022/03/03 05:41:36;;;;;;;32.83;15.63;;;;;;;1.40;60.09;100400.71;1377501;89;21711;-90
2022/03/03 05:44:04;;;;;;;32.28;14.35;;;;;;;1.44;59.75;100400.06;1377272;89;21967;-89
2022/03/03 05:46:31;;;;;;;32.67;14.03;;;;;;;1.43;59.53;100394.02;1377772;89;21310;-89
2022/03/03 05:48:58;;;;;;;34.70;14.07;;;;;;;1.46;59.60;100394.30;1376884;89;21348;-89
2022/03/03 05:51:25;;;;;;;23.40;13.20;;;;;;;1.44;59.83;100394.84;1357403;91;21333;-89
2022/03/03 05:53:52;;;;;;;27.87;13.37;;;;;;;1.45;59.96;100393.94;1376787;89;22112;-89
2022/03/03 05:56:22;;;;;;;23.03;12.67;;;;;;;1.49;59.95;100400.64;1376904;89;22540;-89
2022/03/03 05:58:51;;;;;;;28.77;14.13;;;;;;;1.49;60.19;100404.55;1377547;89;21563;-89
2022/03/03 06:01:18;;;;;;;24.20;14.27;;;;;;;1.51;60.04;100409.22;1376852;89;21288;-88
2022/03/03 06:03:50;;;;;;;31.07;15.00;;;;;;;1.53;60.06;100413.42;1357416;91;21597;-88
2022/03/03 06:06:22;;;;;;;24.87;13.73;;;;;;;1.59;59.99;100404.39;1377578;89;21613;-87
2022/03/03 06:09:00;;;;;;;28.83;15.33;;;;;;;1.58;59.57;100413.13;1357758;91;21393;-88
2022/03/03 06:11:29;;;;;;;24.13;14.57;;;;;;;1.59;59.49;100410.92;1376875;89;21646;-88
2022/03/03 06:14:09;;;;;;;41.50;17.37;;;;;;;1.62;59.40;100405.98;1376831;89;21518;-88
2022/03/03 06:16:39;;;;;;;28.23;14.83;;;;;;;1.67;59.27;100409.14;1376871;89;21649;-88
2022/03/03 06:19:05;;;;;;;26.53;14.57;;;;;;;1.67;58.75;100407.39;1377675;89;21782;-87
2022/03/03 06:21:32;;;;;;;33.43;15.47;;;;;;;1.75;58.85;100418.19;1375071;89;22674;-85
2022/03/03 06:24:00;;;;;;;31.67;14.87;;;;;;;1.79;58.73;100418.87;1375599;89;22367;-85
2022/03/03 06:26:27;;;;;;;34.47;15.00;;;;;;;1.74;58.11;100417.83;1375484;89;21536;-84
2022/03/03 06:28:54;;;;;;;26.00;13.70;;;;;;;1.77;58.16;100418.95;1375543;89;21614;-84
2022/03/03 06:31:22;;;;;;;28.00;13.17;;;;;;;1.76;58.02;100417.28;1376760;89;21535;-84
2022/03/03 06:33:49;;;;;;;32.83;14.07;;;;;;;1.75;57.61;100412.97;1362507;90;21455;-84
2022/03/03 06:36:16;;;;;;;29.30;14.40;;;;;;;1.73;57.56;100414.85;1375940;88;21473;-85
2022/03/03 06:38:43;;;;;;;30.37;14.43;;;;;;;1.83;57.49;100422.12;1375350;89;21591;-85
2022/03/03 06:41:10;;;;;;;26.00;14.67;;;;;;;1.91;57.38;100412.91;1375890;89;21621;-84
2022/03/03 06:43:38;;;;;;;33.93;16.97;;;;;;;2.01;56.38;100412.73;1375316;90;21654;-84
2022/03/03 06:46:06;;;;;;;26.10;14.47;;;;;;;2.08;56.39;100418.41;1374921;89;21571;-85
2022/03/03 06:48:33;;;;;;;26.40;12.60;;;;;;;2.23;55.65;100419.23;1375590;90;21641;-85
2022/03/03 06:51:04;;;;;;;34.67;16.20;;;;;;;2.28;54.69;100414.58;1374856;89;21516;-85
2022/03/03 06:53:39;;;;;;;27.73;15.28;;;;;;;2.43;54.31;100408.39;1375007;89;21667;-85
2022/03/03 06:56:09;;;;;;;46.57;15.63;;;;;;;2.56;54.58;100402.38;1374478;90;22313;-85
2022/03/03 06:58:37;;;;;;;32.95;13.88;;;;;;;2.71;54.12;100401.44;1374895;89;21495;-85
2022/03/03 07:01:08;;;;;;;25.43;11.77;;;;;;;2.72;53.56;100401.80;1361947;90;21303;-86
2022/03/03 07:03:37;;;;;;;;;;;;;;;2.75;52.36;100398.98;1377143;89;21431;-86
2022/03/03 07:06:04;;;;;;;29.47;13.87;;;;;;;2.82;51.86;100396.80;1375321;90;20256;-85
2022/03/03 07:08:33;;;;;;;31.10;16.17;;;;;;;2.87;52.20;100402.58;1375283;89;21392;-85
2022/03/03 07:11:01;;;;;;;29.30;13.83;;;;;;;2.93;51.79;100391.72;1375906;89;21560;-85
2022/03/03 07:13:28;;;;;;;34.10;16.37;;;;;;;3.03;51.95;100399.83;1375614;89;21318;-85
2022/03/03 07:16:00;;;;;;;30.67;15.60;;;;;;;3.13;51.14;100392.56;1375300;89;21522;-85
2022/03/03 07:18:36;;;;;;;30.70;15.30;;;;;;;3.19;51.27;100395.72;1359797;88;22643;-85
2022/03/03 07:21:14;;;;;;;27.20;14.27;;;;;;;3.33;51.20;100396.95;1375814;89;22844;-85
2022/03/03 07:23:48;;;;;;;32.83;15.57;;;;;;;3.40;50.61;100399.55;1374108;90;22544;-86
2022/03/03 07:26:16;;;;;;;33.77;15.00;;;;;;;3.39;50.30;100390.87;1375325;88;21717;-85
2022/03/03 07:28:47;;;;;;;25.93;13.43;;;;;;;3.39;50.30;100390.87;1375372;89;22831;-84
2022/03/03 07:31:18;;;;;;;21.03;11.07;;;;;;;3.58;50.31;100393.55;1375880;89;21609;-86
2022/03/03 07:33:55;;;;;;;27.67;15.08;;;;;;;3.59;49.30;100397.34;1375766;89;21584;-85
2022/03/03 07:36:28;;;;;;;30.97;13.50;;;;;;;3.74;49.62;100398.11;1375088;89;22300;-84
2022/03/03 07:39:00;;;;;;;28.00;12.60;;;;;;;3.74;49.62;100398.11;1375474;89;21753;-81
2022/03/03 07:41:29;;;;;;;31.60;15.73;;;;;;;3.81;48.97;100399.83;1375148;89;21646;-82
2022/03/03 07:43:58;;;;;;;24.50;11.50;;;;;;;3.96;49.48;100400.56;1375667;90;21732;-88
2022/03/03 07:46:27;;;;;;;25.60;12.80;;;;;;;3.90;48.12;100392.66;1375618;89;22741;-84
2022/03/03 07:48:59;;;;;;;22.10;11.97;;;;;;;4.00;47.78;100394.16;1375221;89;22747;-85
2022/03/03 07:51:27;;;;;;;23.63;11.70;;;;;;;4.16;48.55;100395.25;1375831;89;22720;-85
2022/03/03 07:53:54;;;;;;;31.00;13.43;;;;;;;4.18;47.40;100394.67;1375682;90;22632;-85
2022/03/03 07:56:29;;;;;;;30.50;14.20;;;;;;;4.27;47.60;100394.86;1347320;91;21838;-86
2022/03/03 07:59:06;;;;;;;26.03;15.03;;;;;;;4.26;47.54;100398.91;1375983;89;21841;-86
2022/03/03 08:01:35;;;;;;;22.87;11.57;;;;;;;4.61;46.89;100390.33;1375376;89;21968;-86
2022/03/03 08:04:03;;;;;;;28.43;14.80;;;;;;;4.61;46.89;100390.33;1375706;89;22708;-85
2022/03/03 08:06:36;;;;;;;26.90;13.10;;;;;;;4.64;46.27;100393.55;1375398;89;21984;-86
2022/03/03 08:09:01;;;;;;;26.02;13.65;;;;;;;4.64;46.27;100393.55;1374745;89;22072;-86
2022/03/03 08:11:29;;;;;;;29.37;14.00;;;;;;;4.70;45.90;100396.21;1375996;89;23064;-87
